sensor_id;sensor_type;location;lat;lon;timestamp;temperature;humidity
55151;DHT22;41041;43.162;20.538;2023-04-24T03:48:42;308.00;2304.00
55151;DHT22;41041;43.162;20.538;2023-04-24T03:51:08;307.80;2304.00
55151;DHT22;41041;43.162;20.538;2023-04-24T05:09:25;308.10;2304.00
55151;DHT22;41041;43.162;20.538;2023-04-24T05:11:53;308.00;2304.00
55151;DHT22;41041;43.162;20.538;2023-04-24T05:14:25;308.00;2304.00
55151;DHT22;41041;43.162;20.538;2023-04-24T05:16:50;308.00;2304.00
55151;DHT22;41041;43.162;20.538;2023-04-24T05:19:16;308.10;2304.00
55151;DHT22;41041;43.162;20.538;2023-04-24T08:08:25;436.10;2176.00
55151;DHT22;41041;43.162;20.538;2023-04-24T08:13:17;461.00;2073.60
55151;DHT22;41041;43.162;20.538;2023-04-24T08:15:42;460.90;2099.20
55151;DHT22;41041;43.162;20.538;2023-04-24T08:18:08;461.20;2022.40
55151;DHT22;41041;43.162;20.538;2023-04-24T08:20:34;461.10;2048.00
55151;DHT22;41041;43.162;20.538;2023-04-24T08:23:00;461.10;2022.40
55151;DHT22;41041;43.162;20.538;2023-04-24T08:25:26;461.20;2073.60
55151;DHT22;41041;43.162;20.538;2023-04-24T08:27:52;461.70;2022.40
55151;DHT22;41041;43.162;20.538;2023-04-24T08:30:18;461.60;2022.40
55151;DHT22;41041;43.162;20.538;2023-04-24T08:32:44;486.50;2022.40
55151;DHT22;41041;43.162;20.538;2023-04-24T08:35:27;486.40;2022.40
55151;DHT22;41041;43.162;20.538;2023-04-24T08:37:53;486.60;1971.20
55151;DHT22;41041;43.162;20.538;2023-04-24T08:40:28;486.70;2073.60
55151;DHT22;41041;43.162;20.538;2023-04-24T08:42:56;486.80;1996.80
55151;DHT22;41041;43.162;20.538;2023-04-24T08:45:23;486.60;2048.00
55151;DHT22;41041;43.162;20.538;2023-04-24T08:47:49;486.80;2022.40
55151;DHT22;41041;43.162;20.538;2023-04-24T09:22:33;512.80;1843.20
55151;DHT22;41041;43.162;20.538;2023-04-24T09:32:23;512.80;1843.20
55151;DHT22;41041;43.162;20.538;2023-04-24T09:35:11;512.80;1894.40
55151;DHT22;41041;43.162;20.538;2023-04-24T09:37:46;512.70;1868.80
55151;DHT22;41041;43.162;20.538;2023-04-24T09:40:19;512.80;1894.40
55151;DHT22;41041;43.162;20.538;2023-04-24T09:42:56;512.80;1843.20
55151;DHT22;41041;43.162;20.538;2023-04-24T09:45:27;512.80;1894.40
55151;DHT22;41041;43.162;20.538;2023-04-24T09:47:53;512.90;1894.40
55151;DHT22;41041;43.162;20.538;2023-04-24T09:50:25;512.90;1843.20
55151;DHT22;41041;43.162;20.538;2023-04-24T09:52:59;537.70;1868.80
55151;DHT22;41041;43.162;20.538;2023-04-24T09:55:26;512.90;1843.20
55151;DHT22;41041;43.162;20.538;2023-04-24T09:57:57;512.80;1868.80
55151;DHT22;41041;43.162;20.538;2023-04-24T10:00:28;512.80;1843.20
55151;DHT22;41041;43.162;20.538;2023-04-24T10:03:02;512.70;1843.20
55151;DHT22;41041;43.162;20.538;2023-04-24T10:05:30;512.70;1817.60
55151;DHT22;41041;43.162;20.538;2023-04-24T10:07:59;512.60;1817.60
55151;DHT22;41041;43.162;20.538;2023-04-24T10:10:26;512.40;1843.20
55151;DHT22;41041;43.162;20.538;2023-04-24T10:12:52;512.40;1868.80
55151;DHT22;41041;43.162;20.538;2023-04-24T10:15:21;512.20;1843.20
55151;DHT22;41041;43.162;20.538;2023-04-24T10:30:11;512.20;2201.60
55151;DHT22;41041;43.162;20.538;2023-04-24T10:42:28;487.00;2380.80
55151;DHT22;41041;43.162;20.538;2023-04-24T10:44:58;486.90;2380.80
55151;DHT22;41041;43.162;20.538;2023-04-24T10:47:23;486.60;2380.80
55151;DHT22;41041;43.162;20.538;2023-04-24T10:49:51;486.40;2380.80
55151;DHT22;41041;43.162;20.538;2023-04-24T11:02:11;461.10;2380.80
55151;DHT22;41041;43.162;20.538;2023-04-24T13:00:20;436.10;2355.20
55151;DHT22;41041;43.162;20.538;2023-04-24T13:17:56;461.20;2380.80
55151;DHT22;41041;43.162;20.538;2023-04-24T13:20:22;461.10;2380.80
55151;DHT22;41041;43.162;20.538;2023-04-24T13:22:48;460.90;2380.80
55151;DHT22;41041;43.162;20.538;2023-04-24T22:28:53;333.30;2329.60
55151;DHT22;41041;43.162;20.538;2023-04-24T22:31:18;333.20;2329.60
55151;DHT22;41041;43.162;20.538;2023-04-24T22:33:45;333.10;2329.60
55151;DHT22;41041;43.162;20.538;2023-04-24T22:36:13;333.10;2329.60
55151;DHT22;41041;43.162;20.538;2023-04-24T22:38:42;333.10;2329.60
55151;DHT22;41041;43.162;20.538;2023-04-24T22:41:10;333.10;2329.60
55151;DHT22;41041;43.162;20.538;2023-04-24T22:43:37;333.10;2329.60
55151;DHT22;41041;43.162;20.538;2023-04-24T22:46:08;333.10;2329.60
55151;DHT22;41041;43.162;20.538;2023-04-24T22:48:35;333.10;2329.60
55151;DHT22;41041;43.162;20.538;2023-04-24T22:51:01;333.10;2329.60
55151;DHT22;41041;43.162;20.538;2023-04-24T22:53:27;333.10;2329.60
55151;DHT22;41041;43.162;20.538;2023-04-24T22:55:55;333.20;2329.60
55151;DHT22;41041;43.162;20.538;2023-04-24T22:58:21;333.20;2329.60
55151;DHT22;41041;43.162;20.538;2023-04-24T23:00:47;333.20;2329.60
55151;DHT22;41041;43.162;20.538;2023-04-24T23:03:13;333.20;2329.60
55151;DHT22;41041;43.162;20.538;2023-04-24T23:05:39;333.10;2329.60
55151;DHT22;41041;43.162;20.538;2023-04-24T23:08:05;333.20;2329.60
55151;DHT22;41041;43.162;20.538;2023-04-24T23:10:31;333.20;2329.60
55151;DHT22;41041;43.162;20.538;2023-04-24T23:12:57;333.20;2329.60
55151;DHT22;41041;43.162;20.538;2023-04-24T23:15:23;333.10;2329.60
55151;DHT22;41041;43.162;20.538;2023-04-24T23:17:49;333.10;2329.60
55151;DHT22;41041;43.162;20.538;2023-04-24T23:20:15;333.10;2329.60
55151;DHT22;41041;43.162;20.538;2023-04-24T23:22:41;333.20;2329.60
55151;DHT22;41041;43.162;20.538;2023-04-24T23:25:08;333.10;2329.60
55151;DHT22;41041;43.162;20.538;2023-04-24T23:27:37;333.10;2329.60
55151;DHT22;41041;43.162;20.538;2023-04-24T23:30:07;333.10;2329.60
55151;DHT22;41041;43.162;20.538;2023-04-24T23:32:33;333.00;2329.60
55151;DHT22;41041;43.162;20.538;2023-04-24T23:35:02;333.00;2329.60
55151;DHT22;41041;43.162;20.538;2023-04-24T23:37:28;332.90;2329.60
55151;DHT22;41041;43.162;20.538;2023-04-24T23:39:55;332.90;2329.60
55151;DHT22;41041;43.162;20.538;2023-04-24T23:42:22;332.90;2329.60
55151;DHT22;41041;43.162;20.538;2023-04-24T23:44:48;332.90;2329.60
55151;DHT22;41041;43.162;20.538;2023-04-24T23:47:13;332.90;2329.60
55151;DHT22;41041;43.162;20.538;2023-04-24T23:49:39;333.00;2329.60
55151;DHT22;41041;43.162;20.538;2023-04-24T23:52:05;332.90;2329.60
55151;DHT22;41041;43.162;20.538;2023-04-24T23:54:31;332.90;2329.60
55151;DHT22;41041;43.162;20.538;2023-04-24T23:56:58;332.90;2329.60
55151;DHT22;41041;43.162;20.538;2023-04-24T23:59:25;332.90;2329.60
